Time;durP1;ratioP1;P1;durP2;ratioP2;P2;SDS_P1;SDS_P2;PMS_P1;PMS_P2;Temp;Humidity;BMP_temperature;BMP_pressure;BME280_temperature;BME280_humidity;BME280_pressure;Samples;Min_cycle;Max_cycle;Signal;HPM_P1;HPM_P2
2021/01/06 00:01:33;;;;;;;0.95;0.95;;;4.80;99.90;;;;;;4938238;29;20171;-75
2021/01/06 00:03:59;;;;;;;2.95;1.60;;;4.90;99.90;;;;;;4937914;29;20701;-75
2021/01/06 00:06:29;;;;;;;1.10;1.10;;;5.20;99.90;;;;;;4938097;29;20250;-75
2021/01/06 00:08:56;;;;;;;11.85;2.28;;;5.30;99.90;;;;;;4937935;29;20174;-75
2021/01/06 00:11:37;;;;;;;7.93;1.55;;;5.30;99.90;;;;;;4937952;29;20215;-77
2021/01/06 00:14:06;;;;;;;1.98;1.88;;;5.20;99.90;;;;;;4937779;29;20516;-75
2021/01/06 00:16:32;;;;;;;6.70;2.83;;;5.20;99.90;;;;;;4937884;29;20163;-75
2021/01/06 00:18:57;;;;;;;7.68;3.20;;;5.20;99.90;;;;;;4937841;29;20262;-75
2021/01/06 00:21:23;;;;;;;2.30;2.08;;;5.20;99.90;;;;;;4937738;29;20175;-74
2021/01/06 00:23:49;;;;;;;4.65;3.72;;;5.20;99.90;;;;;;4937734;29;20203;-75
2021/01/06 00:26:15;;;;;;;4.70;2.40;;;5.20;99.90;;;;;;4937587;29;20199;-75
2021/01/06 00:28:41;;;;;;;1.42;1.33;;;5.30;99.90;;;;;;4937799;29;20537;-75
2021/01/06 00:31:07;;;;;;;1.35;1.25;;;5.20;99.90;;;;;;4920546;29;20239;-75
2021/01/06 00:33:37;;;;;;;1.67;1.52;;;5.10;99.90;;;;;;4937773;29;20164;-75
2021/01/06 00:36:16;;;;;;;2.47;2.28;;;5.10;99.90;;;;;;4920331;29;20556;-75
2021/01/06 00:38:42;;;;;;;0.45;0.45;;;5.00;99.90;;;;;;4937419;29;20568;-75
2021/01/06 00:41:08;;;;;;;3.78;2.85;;;5.10;99.90;;;;;;4935426;29;20183;-75
2021/01/06 00:43:33;;;;;;;4.13;3.72;;;5.20;99.90;;;;;;4937317;29;20209;-74
2021/01/06 00:45:59;;;;;;;2.03;1.73;;;5.20;99.90;;;;;;4937184;29;20199;-75
2021/01/06 00:48:25;;;;;;;0.95;0.95;;;5.40;99.90;;;;;;4937290;29;20163;-75
2021/01/06 00:50:50;;;;;;;2.75;2.47;;;5.60;99.90;;;;;;4937231;29;20159;-74
2021/01/06 00:53:22;;;;;;;1.30;1.30;;;5.40;99.90;;;;;;4937273;29;20612;-75
2021/01/06 00:55:49;;;;;;;1.73;1.67;;;5.30;99.90;;;;;;4937010;29;20302;-75
2021/01/06 00:58:14;;;;;;;0.88;0.88;;;5.30;99.90;;;;;;4937099;29;20561;-75
2021/01/06 01:00:40;;;;;;;0.75;0.70;;;5.20;99.90;;;;;;4936803;29;20229;-74
2021/01/06 01:03:06;;;;;;;1.77;1.67;;;5.20;99.90;;;;;;4937250;29;20205;-74
2021/01/06 01:05:33;;;;;;;4.78;1.83;;;5.20;99.90;;;;;;4937177;29;20195;-74
2021/01/06 01:08:00;;;;;;;2.42;2.25;;;5.20;99.90;;;;;;4936885;29;20175;-74
2021/01/06 01:10:31;;;;;;;2.15;1.05;;;5.20;99.90;;;;;;4936859;29;20570;-74
2021/01/06 01:12:58;;;;;;;1.92;1.63;;;5.20;99.90;;;;;;4919804;29;20175;-74
2021/01/06 01:15:27;;;;;;;0.98;0.98;;;5.20;99.90;;;;;;4936759;29;20194;-75
2021/01/06 01:17:53;;;;;;;0.50;0.50;;;5.20;99.90;;;;;;4936759;29;20170;-74
2021/01/06 01:20:20;;;;;;;2.72;2.00;;;5.30;99.90;;;;;;4936634;29;20242;-74
2021/01/06 01:22:46;;;;;;;1.60;1.55;;;5.30;99.90;;;;;;4936502;29;20639;-74
2021/01/06 01:25:14;;;;;;;0.95;0.95;;;5.20;99.90;;;;;;4936525;29;20195;-75
2021/01/06 01:27:41;;;;;;;2.88;2.00;;;5.10;99.90;;;;;;4936464;29;20171;-74
2021/01/06 01:30:11;;;;;;;8.45;1.73;;;4.90;99.90;;;;;;4936567;29;20160;-74
2021/01/06 01:32:40;;;;;;;1.60;1.38;;;5.00;99.90;;;;;;4936413;29;20193;-74
2021/01/06 01:35:06;;;;;;;1.13;1.13;;;5.30;99.90;;;;;;4936428;29;20221;-74
2021/01/06 01:37:32;;;;;;;4.40;0.98;;;5.00;99.90;;;;;;4936263;29;20198;-74
2021/01/06 01:39:58;;;;;;;2.58;1.60;;;5.00;99.90;;;;;;4936421;29;20167;-74
2021/01/06 01:42:23;;;;;;;1.20;1.10;;;5.10;99.90;;;;;;4936379;29;20643;-74
2021/01/06 01:45:02;;;;;;;2.55;2.35;;;5.20;99.90;;;;;;4936085;29;20226;-74
2021/01/06 01:47:35;;;;;;;5.35;1.60;;;5.40;99.90;;;;;;4936246;29;20163;-74
2021/01/06 01:50:04;;;;;;;3.80;1.38;;;5.30;99.90;;;;;;4936287;29;20164;-75
2021/01/06 01:52:36;;;;;;;20.48;2.35;;;5.40;99.90;;;;;;4936142;29;20171;-74
2021/01/06 01:55:03;;;;;;;4.90;2.25;;;5.40;99.90;;;;;;4936083;29;20187;-74
2021/01/06 01:57:35;;;;;;;0.50;0.50;;;5.40;99.90;;;;;;4936102;29;20246;-74
2021/01/06 02:00:13;;;;;;;1.10;1.10;;;5.40;99.90;;;;;;4936044;29;20211;-74
2021/01/06 02:02:51;;;;;;;2.70;1.40;;;5.30;99.90;;;;;;4918897;29;20218;-75
2021/01/06 02:05:28;;;;;;;0.45;0.45;;;5.40;99.90;;;;;;4918946;29;20198;-75
2021/01/06 02:08:01;;;;;;;7.68;1.33;;;5.40;99.90;;;;;;4936176;29;20178;-76
2021/01/06 02:10:35;;;;;;;1.65;1.02;;;5.40;99.90;;;;;;4936089;29;20834;-75
2021/01/06 02:13:01;;;;;;;1.02;1.02;;;5.40;99.90;;;;;;4935923;29;20246;-75
2021/01/06 02:15:54;;;;;;;3.97;0.88;;;5.30;99.90;;;;;;4935884;29;20269;-75
2021/01/06 02:18:20;;;;;;;0.70;0.70;;;5.40;99.90;;;;;;4918745;29;20207;-74
2021/01/06 02:21:20;;;;;;;2.45;1.30;;;5.40;99.90;;;;;;4935927;29;20229;-75
2021/01/06 02:23:51;;;;;;;1.75;1.02;;;5.30;99.90;;;;;;4914696;29;20223;-75
2021/01/06 02:26:20;;;;;;;3.53;2.17;;;5.40;99.90;;;;;;4936316;29;20199;-75
2021/01/06 02:28:47;;;;;;;2.30;1.88;;;5.50;99.90;;;;;;4936080;29;20191;-75
2021/01/06 02:31:13;;;;;;;1.83;1.02;;;5.50;99.90;;;;;;4918813;29;20179;-74
2021/01/06 02:33:39;;;;;;;1.58;1.42;;;5.30;99.90;;;;;;4935786;29;20163;-75
2021/01/06 02:36:06;;;;;;;1.23;1.13;;;5.30;99.90;;;;;;4935783;29;20686;-75
2021/01/06 02:38:32;;;;;;;9.50;1.67;;;5.30;99.90;;;;;;4918624;29;20163;-75
2021/01/06 02:40:59;;;;;;;0.80;0.80;;;5.20;99.90;;;;;;4935725;29;20172;-75
2021/01/06 02:43:26;;;;;;;1.15;1.15;;;5.30;99.90;;;;;;4935905;29;20191;-74
2021/01/06 02:45:53;;;;;;;0.70;0.70;;;5.50;99.90;;;;;;4935572;29;20199;-74
2021/01/06 02:48:19;;;;;;;0.77;0.77;;;5.60;99.90;;;;;;4935615;29;20254;-75
2021/01/06 02:50:49;;;;;;;1.10;1.08;;;5.50;99.90;;;;;;4935623;29;20163;-74
2021/01/06 02:53:20;;;;;;;1.00;1.00;;;5.40;99.90;;;;;;4935639;29;20163;-75
2021/01/06 02:55:48;;;;;;;1.92;1.42;;;5.60;99.90;;;;;;4934371;29;20183;-74
2021/01/06 02:58:17;;;;;;;0.98;0.98;;;5.50;99.90;;;;;;4935668;29;20175;-75
2021/01/06 03:00:43;;;;;;;2.10;1.90;;;5.30;99.90;;;;;;4935553;29;20582;-75
2021/01/06 03:03:11;;;;;;;1.45;1.45;;;5.30;99.90;;;;;;4950218;29;20290;-74
2021/01/06 03:05:44;;;;;;;1.00;1.00;;;5.20;99.90;;;;;;4938566;29;20659;-75
2021/01/06 03:08:14;;;;;;;7.05;2.40;;;5.30;99.90;;;;;;4939051;29;20651;-75
2021/01/06 03:10:39;;;;;;;1.67;1.40;;;5.40;99.90;;;;;;4939027;29;20173;-75
2021/01/06 03:13:06;;;;;;;3.58;0.93;;;5.30;99.90;;;;;;4939087;29;20156;-75
2021/01/06 03:15:32;;;;;;;0.68;0.68;;;5.40;99.90;;;;;;4938979;29;20203;-75
2021/01/06 03:17:59;;;;;;;0.80;0.80;;;5.40;99.90;;;;;;4937759;29;20171;-74
2021/01/06 03:20:34;;;;;;;3.40;1.00;;;5.20;99.90;;;;;;4938910;29;20214;-75
2021/01/06 03:23:13;;;;;;;0.75;0.75;;;5.20;99.90;;;;;;4938792;29;20191;-74
2021/01/06 03:25:41;;;;;;;2.05;1.85;;;5.30;99.90;;;;;;4938739;29;20203;-75
2021/01/06 03:28:09;;;;;;;1.25;1.25;;;5.20;99.90;;;;;;4953444;29;20182;-75
2021/01/06 03:30:35;;;;;;;0.38;0.38;;;5.30;99.90;;;;;;4937531;29;20179;-75
2021/01/06 03:33:26;;;;;;;1.48;1.38;;;5.40;99.90;;;;;;4938677;29;20206;-75
2021/01/06 03:35:56;;;;;;;2.95;1.88;;;5.30;99.90;;;;;;4937327;29;20191;-75
2021/01/06 03:38:39;;;;;;;0.98;0.95;;;5.40;99.90;;;;;;4938516;29;20163;-75
2021/01/06 03:41:07;;;;;;;1.98;1.88;;;5.20;99.90;;;;;;4938610;29;20179;-75
2021/01/06 03:43:36;;;;;;;2.08;1.67;;;5.40;99.90;;;;;;4938412;29;20242;-75
2021/01/06 03:46:12;;;;;;;1.70;1.60;;;5.40;99.90;;;;;;4938361;29;20282;-75
2021/01/06 03:48:56;;;;;;;4.55;1.15;;;5.30;99.90;;;;;;4937121;29;20176;-75
2021/01/06 03:51:44;;;;;;;3.15;2.25;;;5.10;99.90;;;;;;4938312;29;20175;-75
2021/01/06 03:54:26;;;;;;;0.82;0.82;;;5.00;99.90;;;;;;4938247;29;20202;-75
2021/01/06 03:56:53;;;;;;;0.90;0.90;;;4.90;99.90;;;;;;4938197;29;20163;-75
2021/01/06 03:59:24;;;;;;;2.95;2.47;;;4.90;99.90;;;;;;4938250;29;20246;-75
2021/01/06 04:02:05;;;;;;;1.83;1.45;;;5.10;99.90;;;;;;4938145;29;20639;-74
2021/01/06 04:04:33;;;;;;;4.78;1.10;;;5.10;99.90;;;;;;4938010;29;20207;-75
2021/01/06 04:07:01;;;;;;;6.75;1.75;;;5.00;99.90;;;;;;4921057;29;20635;-75
2021/01/06 04:09:38;;;;;;;3.35;2.03;;;5.00;99.90;;;;;;4938049;29;20627;-75
2021/01/06 04:12:11;;;;;;;7.57;1.75;;;5.00;99.90;;;;;;4937954;29;20171;-75
2021/01/06 04:14:37;;;;;;;4.30;2.42;;;5.10;99.90;;;;;;4937879;29;20183;-74
2021/01/06 04:17:14;;;;;;;0.75;0.63;;;5.20;99.90;;;;;;4937066;29;20171;-75
2021/01/06 04:19:47;;;;;;;1.75;1.58;;;5.40;99.90;;;;;;4938263;29;20166;-75
2021/01/06 04:22:13;;;;;;;5.10;2.40;;;5.20;99.90;;;;;;4937708;29;20156;-75
2021/01/06 04:24:39;;;;;;;1.38;1.02;;;5.30;99.90;;;;;;4937637;29;20271;-75
2021/01/06 04:27:05;;;;;;;1.20;1.20;;;5.40;99.90;;;;;;4937794;29;20156;-75
2021/01/06 04:29:31;;;;;;;0.98;0.98;;;5.30;99.90;;;;;;4937876;29;20179;-75
2021/01/06 04:31:56;;;;;;;2.40;1.02;;;5.30;99.90;;;;;;4937585;29;20628;-75
2021/01/06 04:34:22;;;;;;;2.47;2.28;;;5.30;99.90;;;;;;4937469;29;20200;-76
2021/01/06 04:36:47;;;;;;;1.58;1.58;;;5.20;99.90;;;;;;4937574;29;20191;-75
2021/01/06 04:39:13;;;;;;;1.17;1.17;;;5.40;99.90;;;;;;4937498;29;20571;-75
2021/01/06 04:41:42;;;;;;;1.80;1.70;;;5.40;99.90;;;;;;4920203;29;20651;-75
2021/01/06 04:44:23;;;;;;;2.55;1.70;;;5.30;99.90;;;;;;4937221;29;20206;-74
2021/01/06 04:47:07;;;;;;;1.70;1.60;;;5.20;99.90;;;;;;4937258;29;20171;-75
2021/01/06 04:49:50;;;;;;;7.22;1.50;;;5.20;99.90;;;;;;4937102;29;20175;-75
2021/01/06 04:52:34;;;;;;;2.00;1.90;;;5.50;99.90;;;;;;4937077;29;20168;-75
2021/01/06 04:55:26;;;;;;;3.42;2.00;;;5.30;99.90;;;;;;4937009;29;20663;-75
2021/01/06 04:58:21;;;;;;;7.88;2.42;;;5.40;99.90;;;;;;4910551;29;20201;-74
2021/01/06 05:01:02;;;;;;;4.63;1.92;;;5.50;99.90;;;;;;4936954;29;20551;-75
2021/01/06 05:03:27;;;;;;;5.78;1.98;;;5.50;99.90;;;;;;4937080;29;20199;-76
2021/01/06 05:06:36;;;;;;;0.77;0.77;;;5.50;99.90;;;;;;4936885;29;20218;-75
2021/01/06 05:09:15;;;;;;;0.70;0.70;;;5.20;99.90;;;;;;4936739;29;20198;-75
2021/01/06 05:11:59;;;;;;;0.55;0.55;;;5.10;99.90;;;;;;4936644;29;20221;-75
2021/01/06 05:14:33;;;;;;;1.48;1.48;;;5.00;99.90;;;;;;4936727;29;20191;-75
2021/01/06 05:16:59;;;;;;;1.10;0.88;;;5.10;99.90;;;;;;4936598;29;20152;-75
2021/01/06 05:19:30;;;;;;;2.03;1.92;;;5.10;99.90;;;;;;4936698;29;20172;-75
2021/01/06 05:21:57;;;;;;;0.95;0.95;;;5.10;99.90;;;;;;4936766;29;20163;-75
2021/01/06 05:24:28;;;;;;;4.15;1.50;;;5.20;99.90;;;;;;4936667;29;20217;-75
2021/01/06 05:27:12;;;;;;;0.52;0.52;;;5.30;99.90;;;;;;4936307;29;20195;-75
2021/01/06 05:29:40;;;;;;;0.63;0.63;;;5.30;99.90;;;;;;4936800;29;20179;-75
2021/01/06 05:32:05;;;;;;;1.35;0.73;;;5.30;99.90;;;;;;4936497;29;20175;-74
2021/01/06 05:34:34;;;;;;;2.17;0.90;;;5.30;99.90;;;;;;4936257;29;20206;-74
2021/01/06 05:37:00;;;;;;;0.82;0.82;;;5.20;99.90;;;;;;4936428;29;20175;-75
2021/01/06 05:39:28;;;;;;;0.50;0.50;;;5.20;99.90;;;;;;4936394;29;20179;-75
2021/01/06 05:42:23;;;;;;;0.95;0.90;;;5.20;99.90;;;;;;4936059;29;20167;-74
2021/01/06 05:44:51;;;;;;;1.55;1.15;;;5.20;99.90;;;;;;4936014;29;20301;-75
2021/01/06 05:47:28;;;;;;;2.60;2.40;;;5.10;99.90;;;;;;4919056;29;20167;-75
2021/01/06 05:49:53;;;;;;;1.02;1.02;;;5.00;99.90;;;;;;4936073;29;20179;-75
2021/01/06 05:52:23;;;;;;;11.35;2.33;;;5.00;99.90;;;;;;4936023;29;20171;-75
2021/01/06 05:54:52;;;;;;;0.68;0.68;;;5.00;99.90;;;;;;4935938;29;20743;-74
2021/01/06 05:57:30;;;;;;;6.07;2.28;;;5.10;99.90;;;;;;4936029;29;20163;-76
2021/01/06 06:00:20;;;;;;;3.63;1.42;;;4.90;99.90;;;;;;4935908;29;20230;-75
2021/01/06 06:03:05;;;;;;;1.23;1.23;;;4.80;99.90;;;;;;4935678;29;20175;-75
2021/01/06 06:05:54;;;;;;;3.30;0.95;;;4.80;99.90;;;;;;4935721;29;20199;-74
2021/01/06 06:08:48;;;;;;;0.77;0.77;;;4.80;99.90;;;;;;4935963;29;20168;-76
2021/01/06 06:11:37;;;;;;;1.15;1.15;;;4.90;99.90;;;;;;4931880;29;20551;-75
2021/01/06 06:14:11;;;;;;;0.63;0.63;;;4.90;99.90;;;;;;4935631;29;20186;-74
2021/01/06 06:16:54;;;;;;;4.63;1.92;;;5.00;99.90;;;;;;4935700;29;20237;-75
2021/01/06 06:20:00;;;;;;;0.47;0.47;;;4.90;99.90;;;;;;4935576;29;20174;-75
2021/01/06 06:22:46;;;;;;;1.00;1.00;;;4.90;99.90;;;;;;4918705;29;20178;-75
2021/01/06 06:25:30;;;;;;;0.95;0.95;;;5.00;99.90;;;;;;4935671;29;20203;-74
2021/01/06 06:28:15;;;;;;;0.68;0.68;;;5.00;99.90;;;;;;4935483;29;20167;-74
2021/01/06 06:31:11;;;;;;;0.80;0.80;;;5.20;99.90;;;;;;4935477;29;20202;-75
2021/01/06 06:33:36;;;;;;;1.20;1.17;;;5.30;99.90;;;;;;4935702;29;20175;-74
2021/01/06 06:36:23;;;;;;;1.35;1.30;;;5.30;99.90;;;;;;4918009;29;20199;-75
2021/01/06 06:38:50;;;;;;;1.95;1.55;;;5.10;99.90;;;;;;4935554;29;20250;-74
2021/01/06 06:41:21;;;;;;;0.82;0.82;;;5.10;99.90;;;;;;4922138;29;20230;-74
2021/01/06 06:44:06;;;;;;;1.80;1.70;;;5.30;99.90;;;;;;4939081;29;20302;-75
2021/01/06 06:46:50;;;;;;;1.30;1.23;;;5.30;99.90;;;;;;4938766;29;20163;-74
2021/01/06 06:49:40;;;;;;;0.65;0.65;;;5.30;99.90;;;;;;4939193;29;20639;-75
2021/01/06 06:52:37;;;;;;;0.70;0.70;;;5.30;99.90;;;;;;4939135;29;20234;-74
2021/01/06 06:55:30;;;;;;;1.85;1.75;;;5.10;99.90;;;;;;4933446;29;20207;-75
2021/01/06 06:58:10;;;;;;;0.82;0.80;;;5.20;99.90;;;;;;4938941;29;20552;-74
2021/01/06 07:00:36;;;;;;;0.73;0.73;;;5.20;99.90;;;;;;4938761;29;20699;-75
2021/01/06 07:03:05;;;;;;;1.25;1.25;;;5.30;99.90;;;;;;4938403;29;20653;-74
2021/01/06 07:05:37;;;;;;;2.65;1.33;;;5.30;99.90;;;;;;4938582;29;20199;-74
2021/01/06 07:08:07;;;;;;;2.50;1.92;;;5.50;99.90;;;;;;4938459;29;20176;-75
2021/01/06 07:10:45;;;;;;;1.10;1.10;;;5.50;99.90;;;;;;4938411;29;20174;-74
2021/01/06 07:13:18;;;;;;;0.60;0.60;;;5.60;99.90;;;;;;4938632;29;20163;-74
2021/01/06 07:15:53;;;;;;;1.05;1.05;;;5.80;99.90;;;;;;4938196;29;20195;-75
2021/01/06 07:18:24;;;;;;;1.52;1.45;;;5.60;99.90;;;;;;4937962;29;20262;-76
2021/01/06 07:21:09;;;;;;;0.28;0.28;;;5.50;99.90;;;;;;4938457;29;20164;-76
2021/01/06 07:23:43;;;;;;;4.78;0.77;;;5.40;99.90;;;;;;4937967;29;20225;-76
2021/01/06 07:26:20;;;;;;;4.97;1.45;;;5.20;99.90;;;;;;4938111;29;20332;-78
2021/01/06 07:28:46;;;;;;;1.13;1.13;;;5.20;99.90;;;;;;4938530;29;20186;-76
2021/01/06 07:31:25;;;;;;;0.55;0.55;;;5.10;99.90;;;;;;4938502;29;20171;-77
2021/01/06 07:34:02;;;;;;;0.85;0.85;;;5.20;99.90;;;;;;4937760;29;20167;-75
2021/01/06 07:36:32;;;;;;;0.40;0.40;;;5.30;99.90;;;;;;4938057;29;20653;-75
2021/01/06 07:38:58;;;;;;;0.82;0.82;;;5.10;99.90;;;;;;4937844;29;20171;-74
2021/01/06 07:41:26;;;;;;;1.42;1.33;;;5.10;99.90;;;;;;4920841;29;20168;-75
2021/01/06 07:44:04;;;;;;;0.60;0.60;;;5.10;99.90;;;;;;4938078;29;20197;-75
2021/01/06 07:47:01;;;;;;;1.30;1.30;;;5.20;99.90;;;;;;4937983;29;20164;-74
2021/01/06 07:49:45;;;;;;;1.00;1.00;;;5.30;99.90;;;;;;4938123;29;20172;-75
2021/01/06 07:52:48;;;;;;;3.03;2.83;;;5.20;99.90;;;;;;4937972;29;20544;-75
2021/01/06 07:55:45;;;;;;;1.35;1.35;;;5.10;99.90;;;;;;4937853;29;20191;-75
2021/01/06 07:58:18;;;;;;;0.60;0.60;;;5.10;99.90;;;;;;4937857;29;20282;-76
2021/01/06 08:01:02;;;;;;;0.57;0.57;;;5.20;99.90;;;;;;4937827;29;20179;-75
2021/01/06 08:03:50;;;;;;;0.95;0.95;;;5.10;99.90;;;;;;4937854;29;20294;-75
2021/01/06 08:06:20;;;;;;;0.30;0.30;;;5.30;99.90;;;;;;4937866;29;20228;-83
2021/01/06 08:08:48;;;;;;;0.90;0.88;;;5.60;99.90;;;;;;4943127;29;20649;-74
2021/01/06 08:11:17;;;;;;;2.65;2.05;;;5.50;99.90;;;;;;4922549;29;20231;-74
2021/01/06 08:13:48;;;;;;;2.47;1.92;;;5.50;99.90;;;;;;4925183;29;20274;-75
2021/01/06 08:16:29;;;;;;;1.33;1.15;;;5.20;99.90;;;;;;4936428;29;20187;-75
2021/01/06 08:18:58;;;;;;;1.67;1.50;;;5.20;99.90;;;;;;4936690;29;20171;-74
2021/01/06 08:21:30;;;;;;;0.50;0.50;;;5.20;99.90;;;;;;4918899;29;20193;-74
2021/01/06 08:24:02;;;;;;;0.95;0.95;;;5.10;99.90;;;;;;4936279;29;20286;-75
2021/01/06 08:26:30;;;;;;;1.00;0.98;;;5.20;99.90;;;;;;4936159;29;20231;-75
2021/01/06 08:29:10;;;;;;;0.93;0.93;;;5.30;99.90;;;;;;4936624;29;20693;-75
2021/01/06 08:31:37;;;;;;;1.02;1.02;;;5.40;99.90;;;;;;4934705;29;20524;-74
2021/01/06 08:34:03;;;;;;;3.97;2.42;;;5.30;99.90;;;;;;4934337;29;20187;-75
2021/01/06 08:36:37;;;;;;;0.82;0.82;;;5.30;99.90;;;;;;4935891;29;20546;-74
2021/01/06 08:39:17;;;;;;;0.55;0.55;;;5.20;99.90;;;;;;4937299;29;20666;-78
2021/01/06 08:41:47;;;;;;;4.90;1.60;;;5.20;99.90;;;;;;4954255;29;20257;-76
2021/01/06 08:44:26;;;;;;;2.22;2.03;;;5.00;99.90;;;;;;4954685;28;20196;-75
2021/01/06 08:46:57;;;;;;;2.63;2.03;;;5.10;99.90;;;;;;4955682;29;20521;-80
2021/01/06 08:49:25;;;;;;;0.93;0.93;;;4.90;99.90;;;;;;4954997;29;20163;-80
2021/01/06 08:51:55;;;;;;;0.60;0.60;;;4.80;99.90;;;;;;4955239;29;20189;-81
2021/01/06 08:54:31;;;;;;;1.13;1.02;;;4.90;99.90;;;;;;4954927;28;20221;-80
2021/01/06 08:57:02;;;;;;;3.15;1.45;;;5.30;99.90;;;;;;4937965;29;20174;-75
2021/01/06 08:59:33;;;;;;;2.05;1.75;;;5.50;99.90;;;;;;4954852;29;20635;-75
2021/01/06 09:02:00;;;;;;;0.80;0.80;;;5.40;99.90;;;;;;4954203;28;20703;-75
2021/01/06 09:04:39;;;;;;;0.90;0.90;;;5.40;99.90;;;;;;4955028;28;20222;-75
2021/01/06 09:07:07;;;;;;;1.02;1.02;;;5.30;99.90;;;;;;4954698;29;20195;-80
2021/01/06 09:09:57;;;;;;;1.77;1.58;;;5.40;99.90;;;;;;4937523;29;20188;-80
2021/01/06 09:12:38;;;;;;;0.90;0.90;;;5.30;99.90;;;;;;4954573;29;20175;-77
2021/01/06 09:15:06;;;;;;;1.33;1.33;;;5.40;99.90;;;;;;4955272;28;20190;-87
2021/01/06 09:17:47;;;;;;;0.55;0.55;;;5.60;99.90;;;;;;4956301;29;20194;-86
2021/01/06 09:20:19;;;;;;;1.63;1.52;;;5.50;99.90;;;;;;4938269;29;20534;-82
2021/01/06 09:22:45;;;;;;;0.77;0.77;;;5.50;99.90;;;;;;4953518;29;20177;-80
2021/01/06 09:25:15;;;;;;;0.93;0.93;;;5.30;99.90;;;;;;4936970;29;20612;-77
2021/01/06 09:27:45;;;;;;;1.40;1.30;;;5.40;99.90;;;;;;4954763;29;20151;-75
2021/01/06 09:30:22;;;;;;;1.27;1.27;;;5.30;99.90;;;;;;4954525;29;20619;-76
2021/01/06 09:32:50;;;;;;;2.35;1.77;;;5.10;99.90;;;;;;4954180;29;20169;-75
2021/01/06 09:35:23;;;;;;;2.10;1.13;;;5.10;99.90;;;;;;4952954;28;20179;-75
2021/01/06 09:37:59;;;;;;;2.53;1.17;;;5.40;99.90;;;;;;4954296;29;20704;-74
2021/01/06 09:40:27;;;;;;;1.90;1.80;;;5.40;99.90;;;;;;4953883;29;20209;-74
2021/01/06 09:43:04;;;;;;;0.55;0.55;;;5.40;99.90;;;;;;4953698;29;20170;-81
2021/01/06 09:45:30;;;;;;;1.73;1.33;;;5.40;99.90;;;;;;4935231;29;20214;-74
2021/01/06 09:47:59;;;;;;;0.90;0.90;;;5.30;99.90;;;;;;4953120;29;20193;-75
2021/01/06 09:50:27;;;;;;;5.53;3.10;;;5.10;99.90;;;;;;4954076;29;20167;-74
2021/01/06 09:52:54;;;;;;;4.00;3.38;;;5.20;99.90;;;;;;4953048;29;20178;-77
2021/01/06 09:55:24;;;;;;;2.60;1.33;;;5.40;99.90;;;;;;4954002;28;20222;-75
2021/01/06 09:58:22;;;;;;;1.02;1.02;;;5.20;99.90;;;;;;4953581;29;20575;-74
2021/01/06 10:01:10;;;;;;;1.20;1.13;;;5.20;99.90;;;;;;4953610;29;20614;-74
2021/01/06 10:03:39;;;;;;;6.68;1.80;;;5.30;99.90;;;;;;4936540;29;20194;-77
2021/01/06 10:06:10;;;;;;;0.40;0.40;;;5.40;99.90;;;;;;4953602;28;20190;-76
2021/01/06 10:08:51;;;;;;;0.85;0.85;;;5.40;99.90;;;;;;4932906;29;20190;-75
2021/01/06 10:11:38;;;;;;;3.25;1.05;;;5.10;99.90;;;;;;4933458;29;20206;-74
2021/01/06 10:14:24;;;;;;;0.68;0.68;;;5.20;99.90;;;;;;4933490;29;20526;-74
2021/01/06 10:16:55;;;;;;;0.90;0.90;;;5.30;99.90;;;;;;4934889;29;20155;-74
2021/01/06 10:19:33;;;;;;;3.33;2.80;;;5.40;99.90;;;;;;4934009;29;20179;-74
2021/01/06 10:22:17;;;;;;;2.40;1.20;;;5.40;99.90;;;;;;4934058;29;20194;-74
2021/01/06 10:25:09;;;;;;;1.25;1.25;;;5.60;99.90;;;;;;4932704;29;20215;-75
2021/01/06 10:27:51;;;;;;;1.15;1.13;;;5.40;99.90;;;;;;4917314;29;20206;-76
2021/01/06 10:30:21;;;;;;;2.97;1.17;;;5.60;99.90;;;;;;4917483;29;20536;-75
2021/01/06 10:32:50;;;;;;;0.63;0.63;;;5.50;99.90;;;;;;4933908;29;20164;-75
2021/01/06 10:35:26;;;;;;;3.83;1.42;;;5.60;99.90;;;;;;4933962;29;20246;-75
2021/01/06 10:37:52;;;;;;;1.65;1.45;;;5.60;99.90;;;;;;4933769;29;20266;-75
2021/01/06 10:40:24;;;;;;;3.58;0.57;;;5.60;99.90;;;;;;4945461;29;20193;-76
2021/01/06 10:42:51;;;;;;;1.92;1.83;;;5.60;99.90;;;;;;4936114;29;20166;-76
2021/01/06 10:45:28;;;;;;;1.05;1.05;;;5.60;99.90;;;;;;4953634;28;20214;-75
2021/01/06 10:47:54;;;;;;;0.95;0.95;;;5.60;99.90;;;;;;4953037;29;20179;-75
2021/01/06 10:50:23;;;;;;;1.15;1.13;;;5.30;99.90;;;;;;4935586;29;20170;-75
2021/01/06 10:53:03;;;;;;;3.03;1.33;;;5.30;99.90;;;;;;4934930;29;20202;-75
2021/01/06 10:55:50;;;;;;;1.15;1.13;;;5.30;99.90;;;;;;4933730;29;20222;-75
2021/01/06 10:58:16;;;;;;;0.85;0.85;;;5.40;99.90;;;;;;4933957;29;20167;-76
2021/01/06 11:01:16;;;;;;;0.63;0.63;;;5.60;99.90;;;;;;4933715;29;20699;-75
2021/01/06 11:04:29;;;;;;;2.28;1.45;;;5.60;99.90;;;;;;4933586;29;20541;-76
2021/01/06 11:07:13;;;;;;;1.95;0.82;;;5.30;99.90;;;;;;4901989;29;20191;-78
2021/01/06 11:10:00;;;;;;;0.85;0.85;;;5.40;99.90;;;;;;4922584;29;20187;-74
2021/01/06 11:13:09;;;;;;;1.92;1.83;;;5.40;99.90;;;;;;4952664;29;20573;-74
2021/01/06 11:15:55;;;;;;;3.25;3.05;;;5.30;99.90;;;;;;4952284;28;20666;-76
2021/01/06 11:18:23;;;;;;;1.75;1.65;;;5.30;99.90;;;;;;4935420;29;20613;-77
2021/01/06 11:21:16;;;;;;;1.17;1.17;;;5.50;99.90;;;;;;4952871;29;20190;-77
2021/01/06 11:23:46;;;;;;;0.90;0.88;;;5.50;99.90;;;;;;4952135;29;20221;-76
2021/01/06 11:26:20;;;;;;;2.00;1.92;;;5.40;99.90;;;;;;4954724;28;20182;-76
2021/01/06 11:29:06;;;;;;;1.60;1.52;;;5.30;99.90;;;;;;4938338;29;20186;-77
2021/01/06 11:31:34;;;;;;;1.85;0.88;;;5.20;99.90;;;;;;4955856;29;20175;-77
2021/01/06 11:34:09;;;;;;;1.33;1.23;;;5.30;99.90;;;;;;4956450;28;20170;-77
2021/01/06 11:36:45;;;;;;;10.27;2.03;;;5.30;99.90;;;;;;4956437;29;20177;-77
2021/01/06 11:39:36;;;;;;;1.02;1.02;;;5.30;99.90;;;;;;4938329;29;20170;-76
2021/01/06 11:42:16;;;;;;;3.05;2.47;;;5.50;99.90;;;;;;4938071;29;20229;-77
2021/01/06 11:45:11;;;;;;;3.78;1.30;;;5.60;99.90;;;;;;4955973;28;20217;-77
2021/01/06 11:47:50;;;;;;;1.58;1.48;;;5.50;99.90;;;;;;4956816;29;20548;-76
2021/01/06 11:50:37;;;;;;;1.83;1.30;;;5.50;99.90;;;;;;4956088;29;20623;-76
2021/01/06 11:53:19;;;;;;;2.15;2.05;;;5.60;99.90;;;;;;4956856;29;20256;-76
2021/01/06 11:56:16;;;;;;;0.95;0.95;;;5.60;99.90;;;;;;4939892;29;20669;-75
2021/01/06 11:59:19;;;;;;;2.72;1.10;;;5.90;99.90;;;;;;4937194;29;20257;-75
2021/01/06 12:02:11;;;;;;;0.93;0.93;;;6.00;99.90;;;;;;4945776;29;20179;-76
2021/01/06 12:04:55;;;;;;;1.42;1.15;;;5.70;99.90;;;;;;4934184;29;20211;-76
2021/01/06 12:07:31;;;;;;;4.45;2.38;;;5.50;99.90;;;;;;4937259;29;20175;-76
2021/01/06 12:10:24;;;;;;;1.55;1.50;;;5.50;99.90;;;;;;4920898;29;20578;-77
2021/01/06 12:13:17;;;;;;;0.68;0.65;;;5.60;99.90;;;;;;4937848;29;20172;-76
2021/01/06 12:15:45;;;;;;;1.25;1.25;;;5.30;99.90;;;;;;4937533;29;20663;-76
2021/01/06 12:18:38;;;;;;;4.38;1.95;;;5.20;99.90;;;;;;4937393;29;20167;-76
2021/01/06 12:21:34;;;;;;;1.83;1.73;;;5.30;99.90;;;;;;4937450;29;20248;-75
2021/01/06 12:24:23;;;;;;;2.05;1.77;;;5.40;99.90;;;;;;4937204;29;20183;-77
2021/01/06 12:27:13;;;;;;;1.50;1.45;;;5.30;99.90;;;;;;4920626;29;20171;-77
2021/01/06 12:30:08;;;;;;;0.38;0.38;;;5.30;99.90;;;;;;4937779;29;20179;-77
2021/01/06 12:32:53;;;;;;;0.50;0.50;;;5.50;99.90;;;;;;4919756;29;20214;-76
2021/01/06 12:35:19;;;;;;;1.38;1.27;;;5.50;99.90;;;;;;4919895;29;20203;-76
2021/01/06 12:38:05;;;;;;;1.75;1.70;;;5.20;99.90;;;;;;4919204;29;20175;-76
2021/01/06 12:40:33;;;;;;;1.00;1.00;;;5.30;99.90;;;;;;4920376;29;20171;-76
2021/01/06 12:43:01;;;;;;;5.93;1.10;;;5.30;99.90;;;;;;4937239;29;20184;-77
2021/01/06 12:45:39;;;;;;;2.58;1.00;;;5.40;99.90;;;;;;4919833;29;20210;-77
2021/01/06 12:48:09;;;;;;;0.65;0.65;;;5.50;99.90;;;;;;4936924;29;20167;-77
2021/01/06 12:50:48;;;;;;;2.83;1.25;;;5.50;99.90;;;;;;4937032;29;20164;-76
2021/01/06 12:53:39;;;;;;;0.50;0.50;;;5.50;99.90;;;;;;4936800;29;20194;-75
2021/01/06 12:56:04;;;;;;;0.73;0.70;;;5.70;99.90;;;;;;4934380;29;20566;-76
2021/01/06 12:58:46;;;;;;;1.10;1.08;;;5.70;99.90;;;;;;4936799;29;20175;-76
2021/01/06 13:01:25;;;;;;;3.08;2.15;;;5.70;99.90;;;;;;4936204;29;20502;-76
2021/01/06 13:03:56;;;;;;;2.15;2.05;;;5.80;99.90;;;;;;4936658;29;20190;-75
2021/01/06 13:06:31;;;;;;;9.25;1.67;;;5.80;99.90;;;;;;4919475;29;20305;-76
2021/01/06 13:09:05;;;;;;;1.08;1.08;;;5.90;99.90;;;;;;4936709;29;20163;-77
2021/01/06 13:11:37;;;;;;;0.70;0.70;;;6.10;99.90;;;;;;4936612;29;20175;-76
2021/01/06 13:14:23;;;;;;;6.03;2.72;;;6.30;99.90;;;;;;4936451;29;20167;-77
2021/01/06 13:16:54;;;;;;;0.60;0.60;;;6.10;99.90;;;;;;4919219;29;20541;-76
2021/01/06 13:19:32;;;;;;;2.28;1.13;;;6.00;99.90;;;;;;4936416;29;20190;-76
2021/01/06 13:22:21;;;;;;;0.25;0.25;;;5.80;99.90;;;;;;4936123;29;20175;-76
2021/01/06 13:25:22;;;;;;;0.85;0.85;;;5.90;99.90;;;;;;4936217;29;20713;-75
2021/01/06 13:27:50;;;;;;;3.13;2.03;;;6.20;99.90;;;;;;4922914;29;20587;-75
2021/01/06 13:30:37;;;;;;;8.75;1.48;;;6.20;99.90;;;;;;4919098;29;20187;-76
2021/01/06 13:33:27;;;;;;;0.40;0.40;;;6.40;99.90;;;;;;4935545;29;20757;-75
2021/01/06 13:35:59;;;;;;;0.90;0.90;;;6.00;99.90;;;;;;4936133;29;20670;-79
2021/01/06 13:38:31;;;;;;;0.30;0.30;;;6.10;99.90;;;;;;4935988;29;20580;-76
2021/01/06 13:41:22;;;;;;;3.00;1.50;;;6.00;99.90;;;;;;4936228;29;20207;-77